NCAR-RAP Real-Time Weather Data

Output produced by METARs form (18 August 2018  01:02 UTC)
found at http://weather.rap.ucar.edu/surface/
 
RJTY 180056Z AUTO 00000KT 10SM CLR 24/11 A2999 RMK AO2 SLP154 T02350112 FZRANO $
RJTY 172356Z AUTO 33004KT 10SM CLR 22/11 A2999 RMK AO2 SLP154 T02220110 10222 20152 51003 FZRANO $
RJTY 172256Z AUTO 00000KT 10SM CLR 20/12 A2999 RMK AO2 SLP155 T02040116 FZRANO $
RJTY 172156Z AUTO 00000KT 10SM CLR 18/12 A2999 RMK AO2 SLP155 T01800118 FZRANO $
RJTY 172056Z AUTO 11003KT 10SM CLR 16/12 A2998 RMK AO2 SLP152 T01620116 52013 FZRANO $
RJTY 171956Z AUTO 00000KT 10SM CLR 16/11 A2996 RMK AO2 SLP145 T01610108 FZRANO $
RJTY 171856Z AUTO 00000KT 10SM CLR 17/11 A2995 RMK AO2 SLP141 T01650110 FZRANO $
RJTY 171756Z AUTO 27004KT 10SM CLR 18/11 A2994 RMK AO2 SLP137 T01760109 10219 20169 52006 FZRANO $
RJTY 171656Z AUTO 00000KT 10SM CLR 18/12 A2993 RMK AO2 SLP133 T01760116 FZRANO $
RJTY 171556Z AUTO 07003KT 10SM CLR 18/09 A2993 RMK AO2 SLP133 T01830094 FZRANO $
RJTY 171456Z AUTO 04007KT 10SM CLR 18/10 A2992 RMK AO2 SLP130 T01840095 402870183 51008 FZRANO $
RJTY 171356Z AUTO 03008KT 10SM CLR 20/09 A2993 RMK AO2 SLP133 T01950091 FZRANO $
RJTY 171256Z AUTO 03012KT 10SM CLR 21/08 A2992 RMK AO2 SLP129 T02100083 FZRANO $
RJTY 171156Z AUTO 02013KT 10SM BKN075 22/08 A2990 RMK AO2 SLP122 T02190080 10284 20215 52028 FZRANO $
RJTY 171056Z AUTO 36011KT 10SM CLR 23/08 A2987 RMK AO2 SLP112 T02250082 FZRANO $
RJTY 170956Z AUTO 01015KT 10SM CLR 23/10 A2985 RMK AO2 SLP106 T02310098 FZRANO $
RJTY 170856Z AUTO 01021G26KT 10SM CLR 25/10 A2981 RMK AO2 PK WND 01031/15 SLP091 T02460097 53009 FZRANO $
RJTY 170756Z AUTO 02022G27KT 10SM CLR 26/11 A2979 RMK AO2 PK WND 03028/44 SLP084 T02600106 FZRANO $
RJTY 170656Z AUTO 02018G28KT 10SM CLR 28/09 A2978 RMK AO2 PK WND 01031/36 SLP081 T02790092 FZRANO $
RJTY 170607Z AUTO 35021G26KT 10SM CLR 28/10 A2979 RMK AO2 WSHFT 0558 SLP084 FZRANO $
RJTY 170556Z AUTO 02017G28KT 10SM CLR 28/10 A2979 RMK AO2 PK WND 01031/09 SLP084 T02810098 10287 20263 50001 FZRANO $
RJTY 170456Z AUTO 03021G26KT 10SM CLR 29/10 A2978 RMK AO2 PK WND 02031/36 SLP080 T02860098 FZRANO $
RJTY 170438Z AUTO 03025G31KT 10SM CLR 29/09 A2978 RMK AO2 WSHFT 24 SLP080 FZRANO $
RJTY 170356Z AUTO 02019G28KT 10SM CLR 28/10 A2979 RMK AO2 PK WND 01033/16 SLP083 T02830095 FZRANO $
RJTY 170256Z AUTO 01025G31KT 10SM CLR 28/11 A2978 RMK AO2 PK WND 02031/49 SLP081 T02790110 58007 FZRANO $
RJTY 170228Z AUTO 03025KT 10SM CLR 28/12 A2978 RMK AO2 WSHFT 17 SLP080 FZRANO $
RJTY 170227Z AUTO 02024KT 10SM CLR 28/12 A2979 RMK AO2 WSHFT 16 SLP083 FZRANO $
RJTY 170226Z AUTO 02023KT 10SM CLR 28/12 A2979 RMK AO2 WSHFT 16 SLP083 FZRANO $
RJTY 170225Z AUTO 02023KT 10SM CLR 28/12 A2979 RMK AO2 WSHFT 16 SLP083 FZRANO $
RJTY 170214Z AUTO 35020G25KT 10SM CLR 27/12 A2980 RMK AO2 WSHFT 10 SLP087 FZRANO $
RJTY 170156Z AUTO 01019G27KT 10SM CLR 27/12 A2981 RMK AO2 PK WND 36030/03 SLP091 T02700118 FZRANO $
RJTY 170056Z AUTO 01023G32KT 10SM CLR 27/10 A2981 RMK AO2 PK WND 35033/40 SLP091 T02710103 FZRANO $
RJTY 170053Z AUTO 01023G32KT 10SM SQ CLR 27/11 A2981 RMK AO2 SLP091 FZRANO $
RJTY 162356Z AUTO 36020G29KT 10SM CLR 26/10 A2980 RMK AO2 PK WND 34034/01 SLP088 T02640101 10265 20231 52020 FZRANO $
RJTY 162256Z AUTO 01024G31KT 10SM FEW075 24/11 A2978 RMK AO2 PK WND 34032/53 SLP082 T02440110 FZRANO $
RJTY 162156Z AUTO 01016KT 10SM BKN075 24/12 A2977 RMK AO2 SLP078 T02390122 FZRANO $
RJTY 162056Z AUTO 01016G24KT 10SM OVC075 24/13 A2974 RMK AO2 SLP068 T02420128 52014 FZRANO $
RJTY 161956Z AUTO 02015KT 10SM BKN075 23/14 A2972 RMK AO2 SLP060 T02340144 FZRANO $
RJTY 161856Z AUTO 02012KT 10SM SCT055 23/16 A2971 RMK AO2 SLP056 T02310164 FZRANO $
RJTY 161756Z AUTO 03007KT 10SM BKN046 24/19 A2970 RMK AO2 SLP053 60000 T02380191 10256 20235 56011 FZRANO $
RJTY 161656Z AUTO 01008KT 10SM BKN050 BKN060 BKN080 24/21 A2970 RMK AO2 DZE13 SLP053 P0000 T02410206 FZRANO $
RJTY 161613Z AUTO 01006KT 10SM OVC055 25/21 A2971 RMK AO2 DZE13 SLP056 FZRANO $
RJTY 161556Z AUTO 00000KT 10SM -DZ OVC055 25/21 A2972 RMK AO2 DZB08E12RAB12E23DZB23E24DZB53 SLP058 P0000 T02520206 FZRANO $
RJTY 161553Z AUTO 34004KT 10SM -DZ OVC055 25/20 A2972 RMK AO2 DZB08E12RAB12E23DZB23E24DZB53 SLP059 FZRANO $
RJTY 161524Z AUTO 34006KT 10SM BKN055 25/21 A2972 RMK AO2 DZB08E12RAB12E23DZB23E24 SLP059 FZRANO $
RJTY 161508Z AUTO 05006KT 10SM -DZ OVC055 25/21 A2972 RMK AO2 DZB08 SLP059 FZRANO $
RJTY 161456Z AUTO 07004KT 10SM OVC050 25/22 A2973 RMK AO2 RAB27E40DZB40E41 SLP062 P0000 60000 T02460215 403220240 55004 FZRANO $
RJTY 161441Z AUTO 04005KT 10SM OVC048 24/22 A2974 RMK AO2 RAB27E40DZB40E41 SLP066 FZRANO $
RJTY 161427Z AUTO 02010KT 10SM -RA OVC047 26/22 A2974 RMK AO2 RAB27 SLP066 FZRANO $
RJTY 161356Z AUTO 22003KT 10SM BKN042 OVC090 26/22 A2974 RMK AO2 SLP066 T02560219 FZRANO $
RJTY 161256Z AUTO 00000KT 10SM FEW045 SCT070 25/22 A2974 RMK AO2 SLP066 T02480215 FZRANO $
RJTY 161156Z AUTO 03005KT 10SM FEW035 SCT055 SCT210 24/21 A2974 RMK AO2 SLP066 T02430206 10303 20240 53005 FZRANO $
RJTY 161056Z AUTO 06006KT 10SM FEW210 24/21 A2972 RMK AO2 SLP060 T02430208 FZRANO $
RJTY 160956Z AUTO 00000KT 10SM FEW130 26/19 A2971 RMK AO2 SLP056 T02610192 FZRANO $
RJTY 160856Z AUTO 08004KT 10SM FEW055 SCT140 BKN170 26/19 A2972 RMK AO2 SLP060 T02570193 52018 FZRANO $
RJTY 160803Z AUTO 03017G20KT 10SM FEW041 SCT065 30/21 A2971 RMK AO2 WSHFT 02 SLP056 FZRANO $
RJTY 160756Z AUTO 32005KT 10SM FEW210 FEW230 30/21 A2971 RMK AO2 SLP056 T03020213 FZRANO $
RJTY 160656Z AUTO 21013KT 10SM FEW210 30/21 A2968 RMK AO2 SLP045 T03010214 FZRANO $
RJTY 160556Z AUTO 20014KT 10SM FEW160 30/22 A2967 RMK AO2 SLP042 T03000221 10322 20298 57022 FZRANO $
RJTY 160456Z AUTO 20011KT 10SM FEW160 30/22 A2969 RMK AO2 SLP049 T03040223 FZRANO $
RJTY 160356Z AUTO 19015KT 10SM FEW160 32/22 A2972 RMK AO2 SLP058 T03190223 FZRANO $
RJTY 160256Z AUTO 19015G22KT 10SM FEW180 31/22 A2973 RMK AO2 SLP062 T03050218 57015 FZRANO $
RJTY 160156Z AUTO 19012KT 10SM FEW160 SCT200 30/22 A2975 RMK AO2 SLP069 T02990218 FZRANO $
RJTY 160056Z AUTO 19017KT 10SM FEW220 30/22 A2977 RMK AO2 SLP075 T03000224 FZRANO $
RJTY 152356Z AUTO 18014G20KT 10SM CLR 30/23 A2978 RMK AO2 SLP079 T03000232 10301 20261 57010 FZRANO $
RJTY 152256Z AUTO 19013G19KT 10SM CLR 29/23 A2979 RMK AO2 SLP082 T02860228 FZRANO $
RJTY 152156Z AUTO 20015G19KT 10SM FEW170 28/22 A2980 RMK AO2 SLP086 T02750224 FZRANO $
RJTY 152056Z AUTO 20009KT 10SM FEW150 SCT230 27/22 A2981 RMK AO2 SLP089 T02670223 57006 FZRANO $
RJTY 151956Z AUTO 19009KT 10SM BKN140 27/22 A2982 RMK AO2 SLP093 T02650223 FZRANO $
RJTY 151856Z AUTO 19008KT 10SM FEW130 SCT160 BKN180 26/22 A2982 RMK AO2 SLP092 T02640222 FZRANO $
RJTY 151756Z AUTO 19010KT 10SM FEW210 26/22 A2983 RMK AO2 SLP096 T02640222 10283 20261 57016 FZRANO $
RJTY 151656Z AUTO 20013KT 10SM SCT170 27/22 A2984 RMK AO2 SLP098 T02670219 FZRANO $
RJTY 151556Z AUTO 19009KT 10SM CLR 26/22 A2985 RMK AO2 SLP102 T02610219 FZRANO $
RJTY 151456Z AUTO 20010KT 10SM CLR 27/22 A2988 RMK AO2 SLP112 T02680222 403340246 57017 FZRANO $
RJTY 151356Z AUTO 19011KT 10SM BKN150 28/22 A2990 RMK AO2 SLP119 T02760218 FZRANO $